sensor_id;sensor_type;location;lat;lon;timestamp;pressure;altitude;pressure_sealevel;temperature;humidity
32733;BME280;11867;51.198;11.966;2022-08-14T00:01:12;100349.19;;;21.15;79.96
32733;BME280;11867;51.198;11.966;2022-08-14T00:06:21;100340.94;;;19.68;86.46
32733;BME280;11867;51.198;11.966;2022-08-14T00:11:29;100337.53;;;19.83;86.12
32733;BME280;11867;51.198;11.966;2022-08-14T00:16:32;100346.91;;;19.58;87.35
32733;BME280;11867;51.198;11.966;2022-08-14T00:21:47;100346.53;;;20.17;84.21
32733;BME280;11867;51.198;11.966;2022-08-14T00:26:51;100341.25;;;20.49;81.08
32733;BME280;11867;51.198;11.966;2022-08-14T00:31:55;100346.09;;;20.64;80.93
32733;BME280;11867;51.198;11.966;2022-08-14T00:36:58;100337.44;;;21.06;78.63
32733;BME280;11867;51.198;11.966;2022-08-14T00:42:03;100332.25;;;20.64;80.23
32733;BME280;11867;51.198;11.966;2022-08-14T00:47:06;100346.19;;;20.55;80.46
32733;BME280;11867;51.198;11.966;2022-08-14T00:52:14;100337.41;;;19.80;84.15
32733;BME280;11867;51.198;11.966;2022-08-14T00:57:19;100338.66;;;18.73;90.48
32733;BME280;11867;51.198;11.966;2022-08-14T01:02:23;100331.28;;;18.57;91.52
32733;BME280;11867;51.198;11.966;2022-08-14T01:07:30;100325.13;;;18.81;90.96
32733;BME280;11867;51.198;11.966;2022-08-14T01:12:47;100323.25;;;19.14;88.72
32733;BME280;11867;51.198;11.966;2022-08-14T01:17:52;100324.78;;;19.58;86.65
32733;BME280;11867;51.198;11.966;2022-08-14T01:23:14;100319.53;;;19.89;83.57
32733;BME280;11867;51.198;11.966;2022-08-14T01:28:20;100322.66;;;20.37;81.68
32733;BME280;11867;51.198;11.966;2022-08-14T01:33:44;100321.16;;;19.45;85.86
32733;BME280;11867;51.198;11.966;2022-08-14T01:39:11;100308.69;;;19.05;88.58
32733;BME280;11867;51.198;11.966;2022-08-14T01:44:14;100310.97;;;18.82;89.75
32733;BME280;11867;51.198;11.966;2022-08-14T01:49:34;100303.28;;;19.09;88.59
32733;BME280;11867;51.198;11.966;2022-08-14T01:54:58;100297.00;;;19.66;85.37
32733;BME280;11867;51.198;11.966;2022-08-14T02:00:03;100294.50;;;18.44;91.30
32733;BME280;11867;51.198;11.966;2022-08-14T02:05:11;100298.31;;;18.01;94.92
32733;BME280;11867;51.198;11.966;2022-08-14T02:10:15;100297.09;;;18.91;89.45
32733;BME280;11867;51.198;11.966;2022-08-14T02:15:26;100291.53;;;19.33;86.50
32733;BME280;11867;51.198;11.966;2022-08-14T02:20:29;100294.16;;;19.75;83.46
32733;BME280;11867;51.198;11.966;2022-08-14T02:25:37;100289.34;;;19.05;86.87
32733;BME280;11867;51.198;11.966;2022-08-14T02:30:40;100292.47;;;19.37;84.78
32733;BME280;11867;51.198;11.966;2022-08-14T02:35:43;100286.28;;;18.56;90.18
32733;BME280;11867;51.198;11.966;2022-08-14T02:41:10;100292.75;;;18.09;92.11
32733;BME280;11867;51.198;11.966;2022-08-14T02:46:13;100278.91;;;17.88;94.04
32733;BME280;11867;51.198;11.966;2022-08-14T02:51:27;100267.84;;;18.69;88.76
32733;BME280;11867;51.198;11.966;2022-08-14T02:56:32;100269.69;;;17.84;93.66
32733;BME280;11867;51.198;11.966;2022-08-14T03:01:58;100268.88;;;18.85;87.89
32733;BME280;11867;51.198;11.966;2022-08-14T03:07:03;100269.59;;;19.28;85.29
32733;BME280;11867;51.198;11.966;2022-08-14T03:12:09;100278.81;;;17.59;93.77
32733;BME280;11867;51.198;11.966;2022-08-14T03:17:18;100284.81;;;18.38;90.77
32733;BME280;11867;51.198;11.966;2022-08-14T03:22:22;100277.97;;;18.86;87.07
32733;BME280;11867;51.198;11.966;2022-08-14T03:27:29;100272.41;;;18.44;88.62
32733;BME280;11867;51.198;11.966;2022-08-14T03:32:48;100264.81;;;18.62;88.45
32733;BME280;11867;51.198;11.966;2022-08-14T03:37:52;100263.53;;;18.59;87.69
32733;BME280;11867;51.198;11.966;2022-08-14T03:43:15;100262.41;;;19.02;84.35
32733;BME280;11867;51.198;11.966;2022-08-14T03:48:19;100248.25;;;18.83;85.93
32733;BME280;11867;51.198;11.966;2022-08-14T03:53:31;100251.38;;;19.14;84.40
32733;BME280;11867;51.198;11.966;2022-08-14T03:58:39;100243.13;;;18.51;87.26
32733;BME280;11867;51.198;11.966;2022-08-14T04:03:42;100246.13;;;17.40;94.72
32733;BME280;11867;51.198;11.966;2022-08-14T04:08:48;100249.25;;;18.06;91.32
32733;BME280;11867;51.198;11.966;2022-08-14T04:13:53;100253.97;;;18.99;85.03
32733;BME280;11867;51.198;11.966;2022-08-14T04:18:57;100241.25;;;19.19;83.68
32733;BME280;11867;51.198;11.966;2022-08-14T04:24:01;100237.41;;;19.44;82.66
32733;BME280;11867;51.198;11.966;2022-08-14T04:29:08;100237.31;;;19.07;84.82
32733;BME280;11867;51.198;11.966;2022-08-14T04:34:15;100229.97;;;19.24;84.11
32733;BME280;11867;51.198;11.966;2022-08-14T04:39:28;100225.94;;;18.46;88.20
32733;BME280;11867;51.198;11.966;2022-08-14T04:44:59;100226.09;;;18.91;86.32
32733;BME280;11867;51.198;11.966;2022-08-14T04:50:01;100211.09;;;19.26;83.54
32733;BME280;11867;51.198;11.966;2022-08-14T04:55:05;100208.59;;;19.33;83.16
32733;BME280;11867;51.198;11.966;2022-08-14T05:00:11;100217.63;;;19.79;80.83
32733;BME280;11867;51.198;11.966;2022-08-14T05:05:18;100196.75;;;20.06;79.71
32733;BME280;11867;51.198;11.966;2022-08-14T05:10:23;100200.88;;;19.63;83.41
32733;BME280;11867;51.198;11.966;2022-08-14T05:15:35;100193.16;;;19.44;84.04
32733;BME280;11867;51.198;11.966;2022-08-14T05:20:41;100199.19;;;19.83;82.72
32733;BME280;11867;51.198;11.966;2022-08-14T05:26:06;100188.25;;;19.99;82.98
32733;BME280;11867;51.198;11.966;2022-08-14T05:31:15;100186.97;;;19.72;84.11
32733;BME280;11867;51.198;11.966;2022-08-14T05:36:21;100181.88;;;19.86;83.16
32733;BME280;11867;51.198;11.966;2022-08-14T05:41:24;100174.28;;;19.95;82.37
32733;BME280;11867;51.198;11.966;2022-08-14T05:46:48;100176.88;;;20.29;82.10
32733;BME280;11867;51.198;11.966;2022-08-14T05:51:50;100177.38;;;19.94;83.99
32733;BME280;11867;51.198;11.966;2022-08-14T05:56:54;100167.03;;;19.91;84.01
32733;BME280;11867;51.198;11.966;2022-08-14T06:01:57;100170.13;;;19.65;85.07
32733;BME280;11867;51.198;11.966;2022-08-14T06:07:02;100157.94;;;20.31;81.79
32733;BME280;11867;51.198;11.966;2022-08-14T06:12:05;100157.59;;;20.89;80.18
32733;BME280;11867;51.198;11.966;2022-08-14T06:17:09;100149.84;;;20.94;80.58
32733;BME280;11867;51.198;11.966;2022-08-14T06:22:26;100163.69;;;20.94;81.57
32733;BME280;11867;51.198;11.966;2022-08-14T06:27:34;100157.72;;;21.08;80.41
32733;BME280;11867;51.198;11.966;2022-08-14T06:32:39;100166.47;;;21.10;80.67
32733;BME280;11867;51.198;11.966;2022-08-14T06:37:55;100152.47;;;21.67;78.36
32733;BME280;11867;51.198;11.966;2022-08-14T06:43:00;100149.03;;;21.89;78.48
32733;BME280;11867;51.198;11.966;2022-08-14T06:48:11;100146.25;;;21.89;78.63
32733;BME280;11867;51.198;11.966;2022-08-14T06:53:17;100141.56;;;21.93;79.89
32733;BME280;11867;51.198;11.966;2022-08-14T06:58:20;100125.44;;;22.19;76.90
32733;BME280;11867;51.198;11.966;2022-08-14T07:03:31;100116.75;;;22.59;76.92
32733;BME280;11867;51.198;11.966;2022-08-14T07:08:52;100117.94;;;22.39;79.95
32733;BME280;11867;51.198;11.966;2022-08-14T07:13:55;100115.44;;;22.53;82.40
32733;BME280;11867;51.198;11.966;2022-08-14T07:18:59;100110.34;;;22.16;84.42
32733;BME280;11867;51.198;11.966;2022-08-14T07:24:02;100114.69;;;22.75;81.22
32733;BME280;11867;51.198;11.966;2022-08-14T07:29:05;100118.00;;;23.04;80.24
32733;BME280;11867;51.198;11.966;2022-08-14T07:34:08;100112.50;;;23.31;77.66
32733;BME280;11867;51.198;11.966;2022-08-14T07:39:11;100110.50;;;23.54;75.96
32733;BME280;11867;51.198;11.966;2022-08-14T07:44:14;100121.28;;;23.60;78.14
32733;BME280;11867;51.198;11.966;2022-08-14T07:49:37;100108.84;;;24.07;76.63
32733;BME280;11867;51.198;11.966;2022-08-14T07:54:41;100098.09;;;24.05;75.71
32733;BME280;11867;51.198;11.966;2022-08-14T07:59:44;100101.41;;;24.14;74.05
32733;BME280;11867;51.198;11.966;2022-08-14T08:04:52;100094.09;;;24.36;73.85
32733;BME280;11867;51.198;11.966;2022-08-14T08:10:04;100096.88;;;24.70;71.07
32733;BME280;11867;51.198;11.966;2022-08-14T08:15:49;100100.78;;;24.62;71.43
32733;BME280;11867;51.198;11.966;2022-08-14T08:20:55;100104.97;;;24.86;70.62
32733;BME280;11867;51.198;11.966;2022-08-14T08:26:00;100101.13;;;24.98;70.13
32733;BME280;11867;51.198;11.966;2022-08-14T08:31:04;100091.56;;;24.99;69.35
32733;BME280;11867;51.198;11.966;2022-08-14T08:36:10;100089.84;;;25.28;68.29
32733;BME280;11867;51.198;11.966;2022-08-14T08:41:19;100080.44;;;25.51;67.59
32733;BME280;11867;51.198;11.966;2022-08-14T08:46:21;100071.72;;;25.60;67.63
32733;BME280;11867;51.198;11.966;2022-08-14T08:51:28;100070.66;;;25.82;66.99
32733;BME280;11867;51.198;11.966;2022-08-14T08:56:37;100065.00;;;25.68;67.13
32733;BME280;11867;51.198;11.966;2022-08-14T09:01:40;100063.75;;;25.65;66.48
32733;BME280;11867;51.198;11.966;2022-08-14T09:06:45;100058.53;;;25.56;65.98
32733;BME280;11867;51.198;11.966;2022-08-14T09:12:08;100047.50;;;25.82;65.88
32733;BME280;11867;51.198;11.966;2022-08-14T09:17:15;100036.13;;;26.19;64.41
32733;BME280;11867;51.198;11.966;2022-08-14T09:22:21;100035.38;;;26.47;63.97
32733;BME280;11867;51.198;11.966;2022-08-14T09:27:37;100034.97;;;26.49;63.04
32733;BME280;11867;51.198;11.966;2022-08-14T09:32:45;100026.25;;;26.75;60.87
32733;BME280;11867;51.198;11.966;2022-08-14T09:38:05;100021.84;;;26.74;62.05
32733;BME280;11867;51.198;11.966;2022-08-14T09:43:28;100013.47;;;26.85;61.17
32733;BME280;11867;51.198;11.966;2022-08-14T09:48:32;100003.88;;;27.33;60.73
32733;BME280;11867;51.198;11.966;2022-08-14T09:53:39;99995.47;;;27.11;60.95
32733;BME280;11867;51.198;11.966;2022-08-14T09:59:09;99992.66;;;27.29;59.89
32733;BME280;11867;51.198;11.966;2022-08-14T10:04:17;99988.44;;;27.98;58.23
32733;BME280;11867;51.198;11.966;2022-08-14T10:09:46;99970.88;;;27.80;58.17
32733;BME280;11867;51.198;11.966;2022-08-14T10:15:00;99958.88;;;28.53;57.30
32733;BME280;11867;51.198;11.966;2022-08-14T10:20:05;99965.25;;;28.57;54.20
32733;BME280;11867;51.198;11.966;2022-08-14T10:25:38;99963.97;;;28.69;54.24
32733;BME280;11867;51.198;11.966;2022-08-14T10:30:44;99950.50;;;29.33;52.41
32733;BME280;11867;51.198;11.966;2022-08-14T10:35:48;99955.03;;;30.97;47.45
32733;BME280;11867;51.198;11.966;2022-08-14T10:40:52;99948.72;;;30.89;47.72
32733;BME280;11867;51.198;11.966;2022-08-14T10:46:11;99941.78;;;33.12;42.94
32733;BME280;11867;51.198;11.966;2022-08-14T10:51:34;99939.16;;;31.87;44.54
32733;BME280;11867;51.198;11.966;2022-08-14T10:56:43;99929.56;;;33.45;41.57
32733;BME280;11867;51.198;11.966;2022-08-14T11:01:46;99920.22;;;33.19;42.06
32733;BME280;11867;51.198;11.966;2022-08-14T11:06:52;99910.28;;;32.97;42.60
32733;BME280;11867;51.198;11.966;2022-08-14T11:11:56;99900.59;;;34.21;42.00
32733;BME280;11867;51.198;11.966;2022-08-14T11:17:20;99907.94;;;33.93;42.02
32733;BME280;11867;51.198;11.966;2022-08-14T11:22:25;99897.81;;;34.56;41.27
32733;BME280;11867;51.198;11.966;2022-08-14T11:27:54;99897.28;;;32.71;43.15
32733;BME280;11867;51.198;11.966;2022-08-14T11:32:57;99896.25;;;33.65;41.18
32733;BME280;11867;51.198;11.966;2022-08-14T11:38:01;99879.16;;;33.56;41.82
32733;BME280;11867;51.198;11.966;2022-08-14T11:43:07;99880.47;;;32.80;42.65
32733;BME280;11867;51.198;11.966;2022-08-14T11:48:16;99863.84;;;32.98;43.31
32733;BME280;11867;51.198;11.966;2022-08-14T11:53:39;99861.00;;;33.83;42.84
32733;BME280;11867;51.198;11.966;2022-08-14T11:58:50;99863.72;;;33.86;41.64
32733;BME280;11867;51.198;11.966;2022-08-14T12:03:55;99858.50;;;33.17;41.18
32733;BME280;11867;51.198;11.966;2022-08-14T12:09:01;99847.19;;;33.97;40.17
32733;BME280;11867;51.198;11.966;2022-08-14T12:14:11;99852.81;;;33.59;40.58
32733;BME280;11867;51.198;11.966;2022-08-14T12:19:45;99835.78;;;34.84;39.10
32733;BME280;11867;51.198;11.966;2022-08-14T12:24:54;99830.44;;;33.77;41.08
32733;BME280;11867;51.198;11.966;2022-08-14T12:29:58;99817.53;;;33.38;41.83
32733;BME280;11867;51.198;11.966;2022-08-14T12:35:01;99826.63;;;31.60;43.39
32733;BME280;11867;51.198;11.966;2022-08-14T12:40:11;99809.22;;;32.76;42.13
32733;BME280;11867;51.198;11.966;2022-08-14T12:45:17;99785.25;;;32.22;42.01
32733;BME280;11867;51.198;11.966;2022-08-14T12:50:33;99785.72;;;32.66;42.26
32733;BME280;11867;51.198;11.966;2022-08-14T12:55:37;99780.81;;;32.83;42.35
32733;BME280;11867;51.198;11.966;2022-08-14T13:01:02;99765.47;;;32.38;43.10
32733;BME280;11867;51.198;11.966;2022-08-14T13:06:24;99756.94;;;32.71;42.03
32733;BME280;11867;51.198;11.966;2022-08-14T13:11:35;99759.00;;;32.84;39.78
32733;BME280;11867;51.198;11.966;2022-08-14T13:16:46;99753.44;;;33.22;38.79
32733;BME280;11867;51.198;11.966;2022-08-14T13:21:58;99754.09;;;32.71;38.91
32733;BME280;11867;51.198;11.966;2022-08-14T13:27:11;99739.63;;;32.56;37.52
32733;BME280;11867;51.198;11.966;2022-08-14T13:32:16;99730.31;;;32.85;37.95
32733;BME280;11867;51.198;11.966;2022-08-14T13:37:20;99717.09;;;32.53;38.53
32733;BME280;11867;51.198;11.966;2022-08-14T13:42:25;99713.16;;;32.21;38.39
32733;BME280;11867;51.198;11.966;2022-08-14T13:47:33;99700.75;;;32.90;38.42
32733;BME280;11867;51.198;11.966;2022-08-14T13:52:39;99689.88;;;32.88;36.53
32733;BME280;11867;51.198;11.966;2022-08-14T13:57:56;99680.94;;;32.64;38.15
32733;BME280;11867;51.198;11.966;2022-08-14T14:03:07;99685.50;;;32.16;39.03
32733;BME280;11867;51.198;11.966;2022-08-14T14:08:12;99669.03;;;33.11;38.23
32733;BME280;11867;51.198;11.966;2022-08-14T14:13:19;99669.34;;;32.88;38.19
32733;BME280;11867;51.198;11.966;2022-08-14T14:18:24;99649.38;;;32.40;39.29
32733;BME280;11867;51.198;11.966;2022-08-14T14:23:35;99648.69;;;32.49;39.59
32733;BME280;11867;51.198;11.966;2022-08-14T14:28:39;99641.44;;;32.90;38.19
32733;BME280;11867;51.198;11.966;2022-08-14T14:33:44;99639.56;;;33.12;37.11
32733;BME280;11867;51.198;11.966;2022-08-14T14:38:51;99640.03;;;33.71;37.82
32733;BME280;11867;51.198;11.966;2022-08-14T14:43:54;99632.03;;;33.92;37.22
32733;BME280;11867;51.198;11.966;2022-08-14T14:49:03;99621.78;;;34.73;37.52
32733;BME280;11867;51.198;11.966;2022-08-14T14:54:08;99632.56;;;34.00;38.62
32733;BME280;11867;51.198;11.966;2022-08-14T14:59:13;99625.25;;;33.54;39.55
32733;BME280;11867;51.198;11.966;2022-08-14T15:04:18;99625.72;;;33.88;38.41
32733;BME280;11867;51.198;11.966;2022-08-14T15:09:21;99618.63;;;32.97;38.64
32733;BME280;11867;51.198;11.966;2022-08-14T15:14:24;99606.38;;;33.51;38.78
32733;BME280;11867;51.198;11.966;2022-08-14T15:19:48;99600.25;;;34.01;38.50
32733;BME280;11867;51.198;11.966;2022-08-14T15:24:57;99600.00;;;33.00;40.08
32733;BME280;11867;51.198;11.966;2022-08-14T15:30:02;99600.47;;;32.72;40.32
32733;BME280;11867;51.198;11.966;2022-08-14T15:35:06;99599.84;;;32.10;40.75
32733;BME280;11867;51.198;11.966;2022-08-14T15:40:12;99605.91;;;31.79;41.41
32733;BME280;11867;51.198;11.966;2022-08-14T15:45:22;99592.50;;;32.00;41.16
32733;BME280;11867;51.198;11.966;2022-08-14T15:50:28;99592.41;;;32.03;42.34
32733;BME280;11867;51.198;11.966;2022-08-14T15:55:31;99601.56;;;31.62;42.88
32733;BME280;11867;51.198;11.966;2022-08-14T16:00:35;99603.16;;;30.97;43.32
32733;BME280;11867;51.198;11.966;2022-08-14T16:05:56;99597.00;;;31.18;43.50
32733;BME280;11867;51.198;11.966;2022-08-14T16:11:05;99587.16;;;30.57;44.10
32733;BME280;11867;51.198;11.966;2022-08-14T16:16:13;99574.94;;;30.64;44.41
32733;BME280;11867;51.198;11.966;2022-08-14T16:21:39;99560.91;;;30.44;45.20
32733;BME280;11867;51.198;11.966;2022-08-14T16:27:02;99565.56;;;30.51;44.66
32733;BME280;11867;51.198;11.966;2022-08-14T16:32:09;99563.06;;;30.73;44.31
32733;BME280;11867;51.198;11.966;2022-08-14T16:37:37;99558.25;;;30.37;44.13
32733;BME280;11867;51.198;11.966;2022-08-14T16:42:44;99553.59;;;30.47;43.17
32733;BME280;11867;51.198;11.966;2022-08-14T16:48:08;99547.97;;;30.10;44.25
32733;BME280;11867;51.198;11.966;2022-08-14T16:53:33;99535.88;;;29.93;44.65
32733;BME280;11867;51.198;11.966;2022-08-14T16:58:37;99539.47;;;29.94;45.13
32733;BME280;11867;51.198;11.966;2022-08-14T17:03:57;99543.75;;;29.58;45.66
32733;BME280;11867;51.198;11.966;2022-08-14T17:09:09;99538.13;;;29.58;46.76
32733;BME280;11867;51.198;11.966;2022-08-14T17:14:24;99525.75;;;29.76;46.41
32733;BME280;11867;51.198;11.966;2022-08-14T17:19:36;99519.19;;;29.63;46.53
32733;BME280;11867;51.198;11.966;2022-08-14T17:24:42;99521.13;;;29.46;47.05
32733;BME280;11867;51.198;11.966;2022-08-14T17:30:04;99520.75;;;29.44;46.77
32733;BME280;11867;51.198;11.966;2022-08-14T17:35:28;99526.06;;;29.14;47.88
32733;BME280;11867;51.198;11.966;2022-08-14T17:40:53;99533.16;;;28.95;48.49
32733;BME280;11867;51.198;11.966;2022-08-14T17:46:32;99530.69;;;29.01;48.19
32733;BME280;11867;51.198;11.966;2022-08-14T17:51:52;99540.03;;;29.18;48.14
32733;BME280;11867;51.198;11.966;2022-08-14T17:56:59;99534.13;;;29.12;48.64
32733;BME280;11867;51.198;11.966;2022-08-14T18:02:03;99535.34;;;29.11;48.75
32733;BME280;11867;51.198;11.966;2022-08-14T18:07:11;99535.59;;;28.70;49.61
32733;BME280;11867;51.198;11.966;2022-08-14T18:12:36;99540.56;;;28.58;50.62
32733;BME280;11867;51.198;11.966;2022-08-14T18:17:45;99542.09;;;28.32;51.12
32733;BME280;11867;51.198;11.966;2022-08-14T18:22:55;99543.47;;;28.21;51.92
32733;BME280;11867;51.198;11.966;2022-08-14T18:28:00;99543.91;;;27.81;52.32
32733;BME280;11867;51.198;11.966;2022-08-14T18:33:20;99537.50;;;27.46;53.46
32733;BME280;11867;51.198;11.966;2022-08-14T18:38:24;99540.53;;;27.14;54.21
32733;BME280;11867;51.198;11.966;2022-08-14T18:43:48;99546.13;;;27.14;55.14
32733;BME280;11867;51.198;11.966;2022-08-14T18:49:12;99551.63;;;26.80;55.47
32733;BME280;11867;51.198;11.966;2022-08-14T18:54:26;99550.84;;;26.75;56.29
32733;BME280;11867;51.198;11.966;2022-08-14T18:59:39;99554.56;;;26.54;56.79
32733;BME280;11867;51.198;11.966;2022-08-14T19:04:43;99557.19;;;26.83;55.70
32733;BME280;11867;51.198;11.966;2022-08-14T19:09:50;99556.50;;;27.21;54.55
32733;BME280;11867;51.198;11.966;2022-08-14T19:15:05;99561.16;;;26.86;55.37
32733;BME280;11867;51.198;11.966;2022-08-14T19:20:10;99562.50;;;26.56;56.16
32733;BME280;11867;51.198;11.966;2022-08-14T19:25:45;99570.19;;;26.37;56.64
32733;BME280;11867;51.198;11.966;2022-08-14T19:36:46;99567.06;;;26.25;55.51
32733;BME280;11867;51.198;11.966;2022-08-14T19:42:06;99564.31;;;26.21;55.79
32733;BME280;11867;51.198;11.966;2022-08-14T19:47:12;99559.19;;;26.09;55.74
32733;BME280;11867;51.198;11.966;2022-08-14T19:52:21;99547.63;;;26.07;56.53
32733;BME280;11867;51.198;11.966;2022-08-14T19:57:26;99553.22;;;26.00;57.23
32733;BME280;11867;51.198;11.966;2022-08-14T20:02:29;99550.03;;;26.01;57.57
32733;BME280;11867;51.198;11.966;2022-08-14T20:07:40;99553.28;;;25.67;57.65
32733;BME280;11867;51.198;11.966;2022-08-14T20:13:02;99547.34;;;25.51;58.41
32733;BME280;11867;51.198;11.966;2022-08-14T20:18:07;99550.56;;;25.24;59.11
32733;BME280;11867;51.198;11.966;2022-08-14T20:23:31;99556.09;;;25.13;59.30
32733;BME280;11867;51.198;11.966;2022-08-14T20:28:39;99560.09;;;25.05;59.89
32733;BME280;11867;51.198;11.966;2022-08-14T20:34:01;99567.25;;;24.70;61.90
32733;BME280;11867;51.198;11.966;2022-08-14T20:39:08;99548.88;;;24.55;61.84
32733;BME280;11867;51.198;11.966;2022-08-14T20:44:18;99552.75;;;24.29;62.93
32733;BME280;11867;51.198;11.966;2022-08-14T20:49:38;99551.91;;;24.07;63.57
32733;BME280;11867;51.198;11.966;2022-08-14T20:54:43;99542.31;;;23.97;64.16
32733;BME280;11867;51.198;11.966;2022-08-14T20:59:52;99554.97;;;23.84;64.06
32733;BME280;11867;51.198;11.966;2022-08-14T21:05:00;99556.97;;;23.87;64.17
32733;BME280;11867;51.198;11.966;2022-08-14T21:10:20;99553.69;;;23.74;64.60
32733;BME280;11867;51.198;11.966;2022-08-14T21:15:34;99565.28;;;23.83;64.25
32733;BME280;11867;51.198;11.966;2022-08-14T21:20:39;99562.19;;;23.95;63.80
32733;BME280;11867;51.198;11.966;2022-08-14T21:25:45;99556.44;;;23.70;64.46
32733;BME280;11867;51.198;11.966;2022-08-14T21:30:47;99554.09;;;23.76;64.46
32733;BME280;11867;51.198;11.966;2022-08-14T21:35:58;99557.16;;;23.53;65.39
32733;BME280;11867;51.198;11.966;2022-08-14T21:41:10;99548.63;;;23.87;64.30
32733;BME280;11867;51.198;11.966;2022-08-14T21:46:44;99558.63;;;23.40;65.71
32733;BME280;11867;51.198;11.966;2022-08-14T21:51:51;99552.69;;;23.41;65.70
32733;BME280;11867;51.198;11.966;2022-08-14T21:57:06;99539.50;;;23.31;66.00
32733;BME280;11867;51.198;11.966;2022-08-14T22:02:15;99539.53;;;22.90;67.56
32733;BME280;11867;51.198;11.966;2022-08-14T22:07:35;99543.69;;;23.07;67.97
32733;BME280;11867;51.198;11.966;2022-08-14T22:12:40;99533.00;;;23.12;67.28
32733;BME280;11867;51.198;11.966;2022-08-14T22:17:59;99540.59;;;23.15;67.52
32733;BME280;11867;51.198;11.966;2022-08-14T22:23:05;99532.53;;;23.55;66.42
32733;BME280;11867;51.198;11.966;2022-08-14T22:28:12;99526.50;;;23.46;66.64
32733;BME280;11867;51.198;11.966;2022-08-14T22:33:18;99523.50;;;23.76;65.96
32733;BME280;11867;51.198;11.966;2022-08-14T22:38:22;99529.66;;;22.96;68.59
32733;BME280;11867;51.198;11.966;2022-08-14T22:43:38;99521.25;;;22.44;70.29
32733;BME280;11867;51.198;11.966;2022-08-14T22:48:41;99511.94;;;22.67;69.42
32733;BME280;11867;51.198;11.966;2022-08-14T22:53:49;99511.06;;;22.59;70.25
32733;BME280;11867;51.198;11.966;2022-08-14T22:58:54;99503.56;;;22.22;71.03
32733;BME280;11867;51.198;11.966;2022-08-14T23:03:58;99495.00;;;22.79;69.38
32733;BME280;11867;51.198;11.966;2022-08-14T23:09:04;99485.16;;;23.48;66.77
32733;BME280;11867;51.198;11.966;2022-08-14T23:14:27;99490.16;;;23.17;68.06
32733;BME280;11867;51.198;11.966;2022-08-14T23:19:31;99482.91;;;23.68;66.73
32733;BME280;11867;51.198;11.966;2022-08-14T23:24:36;99476.50;;;23.64;66.87
32733;BME280;11867;51.198;11.966;2022-08-14T23:29:43;99468.78;;;23.28;67.75
32733;BME280;11867;51.198;11.966;2022-08-14T23:34:46;99484.41;;;22.47;70.79
32733;BME280;11867;51.198;11.966;2022-08-14T23:39:53;99465.25;;;23.35;68.19
32733;BME280;11867;51.198;11.966;2022-08-14T23:44:56;99468.19;;;23.67;67.31
32733;BME280;11867;51.198;11.966;2022-08-14T23:50:00;99462.72;;;22.64;70.47
32733;BME280;11867;51.198;11.966;2022-08-14T23:55:09;99451.84;;;22.10;72.99
